Sonora Municipal Airport
KSOA : now visible

Airfield :











YOU CAN JOIN US ON...

 
LOGIN :

Register | Disclaimer

   EN    FR    IT 

 









Legend :    VFR   Marginal VFR   IFR   Intensive IFR   Very Intensive IFR
Visi :
Ceiling :
>= 8 km
>= 3000ft
5 to 8 km
1000 to 3000 ft
1500m to 5 km
500 to 1000 ft
800 to 1500m
200 to 500 ft
< 800m
< 200 ft
Symbols :   Thunderstorms  Fog  Heavy snow  Heavy precipitations  Wind > 20 kt







- Airport Elevation : 2140 ft


KSOA - Sonora Municipal

CURRENT METAR :
  • 162015Z AUTO 13007KT 10SM SCT037 SCT100 31/22 A2990 RMK AO2

EXPIRED METARs :
  • 161955Z AUTO 15007G12KT 10SM BKN035 BKN044 BKN095 30/22 A2990 RMK AO2
  • 161935Z AUTO 00000G10KT 10SM SCT033 SCT045 BKN090 29/22 A2991 RMK AO2
  • 161915Z AUTO 16008G13KT 10SM SCT030 SCT050 SCT070 29/22 A2992 RMK AO2
  • 161855Z AUTO 18008KT 10SM SCT029 SCT065 SCT080 29/22 A2992 RMK AO2
  • 161835Z AUTO 16008G13KT 10SM SCT028 SCT049 BKN090 29/22 A2993 RMK AO2
  • 161815Z AUTO 18008G13KT 160V220 10SM FEW024 BKN029 BKN049 29/22 A2994 RMK AO2
  • 161755Z AUTO 17010KT 10SM BKN025 BKN035 OVC080 28/21 A2994 RMK AO2
  • 161735Z AUTO 18008KT 10SM FEW022 BKN027 BKN050 28/21 A2995 RMK AO2

TAF KSOA
Valid from the 16 at 18:00 until the 17 at 18:00 UTC


161751Z 1618/1718 18009KT P6SM SCT040
FM170200 18009KT P6SM VCTS BKN040CB
FM170800 15006KT P6SM SCT060 BKN120
FM171100 VRB03KT P6SM BKN012
FM171600 18006KT P6SM SCT030
KZHU FIR / North America



MET'MAP, your aeronautical weather chart ! - Copyright ORBIFLY December 2007 - Disclaimer

ORBIFLY MET'MAP TEAM :

Programming & Development : Alexandra Zaïnal
Concept & Development : Baudouin d'Aumeries
Co-Development & Prog : Marc-Olivier Méhu
Technical & hardware support : Manuel Goepfert

Contact : metmap@orbifly.com




SOURCES & CREDITS :

   NOAA       Earth
Advisory